sensor_id;sensor_type;location;lat;lon;timestamp;temperature;humidity
5459;DHT22;2752;49.992;8.422;2022-07-10T00:00:25;16.50;1.20
5459;DHT22;2752;49.992;8.422;2022-07-10T00:02:54;16.40;1.20
5459;DHT22;2752;49.992;8.422;2022-07-10T00:05:20;16.40;1.30
5459;DHT22;2752;49.992;8.422;2022-07-10T00:07:49;16.30;1.10
5459;DHT22;2752;49.992;8.422;2022-07-10T00:10:16;16.30;1.20
5459;DHT22;2752;49.992;8.422;2022-07-10T00:12:44;16.20;1.40
5459;DHT22;2752;49.992;8.422;2022-07-10T00:15:11;16.10;2.40
5459;DHT22;2752;49.992;8.422;2022-07-10T00:17:39;16.20;1.00
5459;DHT22;2752;49.992;8.422;2022-07-10T00:20:08;16.20;1.00
5459;DHT22;2752;49.992;8.422;2022-07-10T00:22:36;16.10;1.00
5459;DHT22;2752;49.992;8.422;2022-07-10T00:25:05;16.10;1.00
5459;DHT22;2752;49.992;8.422;2022-07-10T00:27:32;16.10;1.00
5459;DHT22;2752;49.992;8.422;2022-07-10T00:29:59;16.00;1.00
5459;DHT22;2752;49.992;8.422;2022-07-10T00:32:26;16.00;1.00
5459;DHT22;2752;49.992;8.422;2022-07-10T00:34:54;16.10;1.00
5459;DHT22;2752;49.992;8.422;2022-07-10T00:37:22;16.20;1.00
5459;DHT22;2752;49.992;8.422;2022-07-10T00:39:49;16.20;1.00
5459;DHT22;2752;49.992;8.422;2022-07-10T00:42:17;16.10;1.00
5459;DHT22;2752;49.992;8.422;2022-07-10T00:44:43;16.00;1.00
5459;DHT22;2752;49.992;8.422;2022-07-10T00:47:11;15.80;1.00
5459;DHT22;2752;49.992;8.422;2022-07-10T00:49:39;15.80;1.00
5459;DHT22;2752;49.992;8.422;2022-07-10T00:52:07;15.80;1.00
5459;DHT22;2752;49.992;8.422;2022-07-10T00:54:37;15.70;1.00
5459;DHT22;2752;49.992;8.422;2022-07-10T00:57:05;15.70;1.00
5459;DHT22;2752;49.992;8.422;2022-07-10T00:59:34;15.60;1.00
5459;DHT22;2752;49.992;8.422;2022-07-10T01:02:01;15.60;1.00
5459;DHT22;2752;49.992;8.422;2022-07-10T01:04:28;15.60;1.00
5459;DHT22;2752;49.992;8.422;2022-07-10T01:06:55;15.70;1.00
5459;DHT22;2752;49.992;8.422;2022-07-10T01:09:22;15.70;1.00
5459;DHT22;2752;49.992;8.422;2022-07-10T01:11:50;15.70;1.00
5459;DHT22;2752;49.992;8.422;2022-07-10T01:14:17;15.70;1.00
5459;DHT22;2752;49.992;8.422;2022-07-10T01:16:44;15.70;1.00
5459;DHT22;2752;49.992;8.422;2022-07-10T01:19:11;15.70;1.00
5459;DHT22;2752;49.992;8.422;2022-07-10T01:21:39;15.70;1.00
5459;DHT22;2752;49.992;8.422;2022-07-10T01:24:07;15.60;1.00
5459;DHT22;2752;49.992;8.422;2022-07-10T01:26:34;15.60;1.00
5459;DHT22;2752;49.992;8.422;2022-07-10T01:29:03;15.60;1.00
5459;DHT22;2752;49.992;8.422;2022-07-10T01:31:30;15.60;1.00
5459;DHT22;2752;49.992;8.422;2022-07-10T01:33:59;15.50;1.00
5459;DHT22;2752;49.992;8.422;2022-07-10T01:36:27;15.50;1.00
5459;DHT22;2752;49.992;8.422;2022-07-10T01:38:56;15.50;1.00
5459;DHT22;2752;49.992;8.422;2022-07-10T01:41:23;15.40;1.00
5459;DHT22;2752;49.992;8.422;2022-07-10T01:43:50;15.40;1.00
5459;DHT22;2752;49.992;8.422;2022-07-10T01:46:17;15.40;1.00
5459;DHT22;2752;49.992;8.422;2022-07-10T01:48:44;15.30;1.00
5459;DHT22;2752;49.992;8.422;2022-07-10T01:51:11;15.30;1.00
5459;DHT22;2752;49.992;8.422;2022-07-10T01:53:39;15.20;1.00
5459;DHT22;2752;49.992;8.422;2022-07-10T01:56:08;15.20;1.00
5459;DHT22;2752;49.992;8.422;2022-07-10T01:58:35;15.20;1.00
5459;DHT22;2752;49.992;8.422;2022-07-10T02:01:03;15.10;1.00
5459;DHT22;2752;49.992;8.422;2022-07-10T02:03:30;15.10;1.00
5459;DHT22;2752;49.992;8.422;2022-07-10T02:06:15;15.10;1.00
5459;DHT22;2752;49.992;8.422;2022-07-10T02:08:41;15.00;1.00
5459;DHT22;2752;49.992;8.422;2022-07-10T02:11:09;15.00;1.00
5459;DHT22;2752;49.992;8.422;2022-07-10T02:13:37;14.80;1.10
5459;DHT22;2752;49.992;8.422;2022-07-10T02:16:05;14.90;1.90
5459;DHT22;2752;49.992;8.422;2022-07-10T02:18:31;14.90;1.60
5459;DHT22;2752;49.992;8.422;2022-07-10T02:20:58;14.90;2.70
5459;DHT22;2752;49.992;8.422;2022-07-10T02:23:25;14.90;1.00
5459;DHT22;2752;49.992;8.422;2022-07-10T02:25:52;14.90;1.00
5459;DHT22;2752;49.992;8.422;2022-07-10T02:28:20;15.00;1.00
5459;DHT22;2752;49.992;8.422;2022-07-10T02:30:47;15.10;1.00
5459;DHT22;2752;49.992;8.422;2022-07-10T02:33:13;15.20;1.00
5459;DHT22;2752;49.992;8.422;2022-07-10T02:35:40;15.10;1.00
5459;DHT22;2752;49.992;8.422;2022-07-10T02:38:06;15.20;1.00
5459;DHT22;2752;49.992;8.422;2022-07-10T02:40:33;15.10;1.00
5459;DHT22;2752;49.992;8.422;2022-07-10T02:43:00;15.10;1.00
5459;DHT22;2752;49.992;8.422;2022-07-10T02:45:28;15.10;1.00
5459;DHT22;2752;49.992;8.422;2022-07-10T02:47:54;15.10;1.00
5459;DHT22;2752;49.992;8.422;2022-07-10T02:50:21;15.00;1.00
5459;DHT22;2752;49.992;8.422;2022-07-10T02:52:48;15.00;1.00
5459;DHT22;2752;49.992;8.422;2022-07-10T02:55:15;15.00;1.00
5459;DHT22;2752;49.992;8.422;2022-07-10T02:57:41;15.00;1.00
5459;DHT22;2752;49.992;8.422;2022-07-10T03:00:09;14.80;1.00
5459;DHT22;2752;49.992;8.422;2022-07-10T03:05:06;14.80;1.00
5459;DHT22;2752;49.992;8.422;2022-07-10T03:07:33;14.80;1.00
5459;DHT22;2752;49.992;8.422;2022-07-10T03:10:00;14.70;1.00
5459;DHT22;2752;49.992;8.422;2022-07-10T03:12:26;14.70;1.00
5459;DHT22;2752;49.992;8.422;2022-07-10T03:14:53;14.80;1.00
5459;DHT22;2752;49.992;8.422;2022-07-10T03:17:19;14.70;1.00
5459;DHT22;2752;49.992;8.422;2022-07-10T03:19:47;14.50;1.00
5459;DHT22;2752;49.992;8.422;2022-07-10T03:22:14;14.70;1.00
5459;DHT22;2752;49.992;8.422;2022-07-10T03:24:41;14.60;1.00
5459;DHT22;2752;49.992;8.422;2022-07-10T03:27:08;14.60;1.00
5459;DHT22;2752;49.992;8.422;2022-07-10T03:29:35;14.50;1.00
5459;DHT22;2752;49.992;8.422;2022-07-10T03:34:29;14.60;1.00
5459;DHT22;2752;49.992;8.422;2022-07-10T03:36:59;14.60;1.00
5459;DHT22;2752;49.992;8.422;2022-07-10T03:39:26;14.60;1.00
5459;DHT22;2752;49.992;8.422;2022-07-10T03:41:53;14.60;1.00
5459;DHT22;2752;49.992;8.422;2022-07-10T03:44:19;14.50;1.00
5459;DHT22;2752;49.992;8.422;2022-07-10T03:49:13;14.50;1.00
5459;DHT22;2752;49.992;8.422;2022-07-10T03:51:40;14.50;1.00
5459;DHT22;2752;49.992;8.422;2022-07-10T03:54:08;14.30;2.00
5459;DHT22;2752;49.992;8.422;2022-07-10T03:56:34;14.40;1.00
5459;DHT22;2752;49.992;8.422;2022-07-10T03:59:19;14.30;1.00
5459;DHT22;2752;49.992;8.422;2022-07-10T04:01:45;14.30;1.00
5459;DHT22;2752;49.992;8.422;2022-07-10T04:04:12;14.40;1.00
5459;DHT22;2752;49.992;8.422;2022-07-10T04:06:39;14.50;1.00
5459;DHT22;2752;49.992;8.422;2022-07-10T04:09:05;14.50;1.00
5459;DHT22;2752;49.992;8.422;2022-07-10T04:11:33;14.70;1.00
5459;DHT22;2752;49.992;8.422;2022-07-10T04:14:00;14.80;1.00
5459;DHT22;2752;49.992;8.422;2022-07-10T04:16:27;14.80;1.00
5459;DHT22;2752;49.992;8.422;2022-07-10T04:18:53;15.00;1.00
5459;DHT22;2752;49.992;8.422;2022-07-10T04:21:20;15.10;1.00
5459;DHT22;2752;49.992;8.422;2022-07-10T04:23:47;15.10;1.00
5459;DHT22;2752;49.992;8.422;2022-07-10T04:26:13;16.30;1.00
5459;DHT22;2752;49.992;8.422;2022-07-10T04:28:41;14.90;1.00
5459;DHT22;2752;49.992;8.422;2022-07-10T04:31:08;14.90;1.00
5459;DHT22;2752;49.992;8.422;2022-07-10T04:33:34;14.80;1.00
5459;DHT22;2752;49.992;8.422;2022-07-10T04:36:01;14.70;1.00
5459;DHT22;2752;49.992;8.422;2022-07-10T04:38:28;14.60;1.00
5459;DHT22;2752;49.992;8.422;2022-07-10T04:40:56;14.50;1.00
5459;DHT22;2752;49.992;8.422;2022-07-10T04:43:23;14.50;1.00
5459;DHT22;2752;49.992;8.422;2022-07-10T04:45:51;14.20;1.00
5459;DHT22;2752;49.992;8.422;2022-07-10T04:48:18;14.60;1.00
5459;DHT22;2752;49.992;8.422;2022-07-10T04:50:44;14.60;1.00
5459;DHT22;2752;49.992;8.422;2022-07-10T04:53:12;14.80;1.00
5459;DHT22;2752;49.992;8.422;2022-07-10T04:55:39;14.60;1.00
5459;DHT22;2752;49.992;8.422;2022-07-10T04:58:05;14.70;1.00
5459;DHT22;2752;49.992;8.422;2022-07-10T05:00:32;14.60;1.00
5459;DHT22;2752;49.992;8.422;2022-07-10T05:03:00;14.40;1.00
5459;DHT22;2752;49.992;8.422;2022-07-10T05:07:53;14.60;1.00
5459;DHT22;2752;49.992;8.422;2022-07-10T05:12:48;14.70;1.00
5459;DHT22;2752;49.992;8.422;2022-07-10T05:15:14;14.90;1.00
5459;DHT22;2752;49.992;8.422;2022-07-10T05:17:41;14.90;1.00
5459;DHT22;2752;49.992;8.422;2022-07-10T05:20:10;15.10;1.00
5459;DHT22;2752;49.992;8.422;2022-07-10T05:22:37;15.20;1.00
5459;DHT22;2752;49.992;8.422;2022-07-10T05:25:04;15.20;1.00
5459;DHT22;2752;49.992;8.422;2022-07-10T05:27:30;15.20;1.00
5459;DHT22;2752;49.992;8.422;2022-07-10T05:29:57;15.40;1.00
5459;DHT22;2752;49.992;8.422;2022-07-10T05:32:24;15.40;1.00
5459;DHT22;2752;49.992;8.422;2022-07-10T05:34:50;15.40;1.00
5459;DHT22;2752;49.992;8.422;2022-07-10T05:37:19;15.40;1.00
5459;DHT22;2752;49.992;8.422;2022-07-10T05:39:45;15.40;1.00
5459;DHT22;2752;49.992;8.422;2022-07-10T05:42:12;15.40;1.00
5459;DHT22;2752;49.992;8.422;2022-07-10T05:44:39;15.60;1.00
5459;DHT22;2752;49.992;8.422;2022-07-10T05:47:05;15.70;1.00
5459;DHT22;2752;49.992;8.422;2022-07-10T05:49:32;15.90;1.00
5459;DHT22;2752;49.992;8.422;2022-07-10T05:51:59;16.10;1.00
5459;DHT22;2752;49.992;8.422;2022-07-10T05:54:27;16.30;1.00
5459;DHT22;2752;49.992;8.422;2022-07-10T05:56:53;16.50;1.00
5459;DHT22;2752;49.992;8.422;2022-07-10T05:59:20;16.50;1.00
5459;DHT22;2752;49.992;8.422;2022-07-10T06:01:47;16.40;1.00
5459;DHT22;2752;49.992;8.422;2022-07-10T06:04:13;16.50;1.00
5459;DHT22;2752;49.992;8.422;2022-07-10T06:06:40;16.70;1.00
5459;DHT22;2752;49.992;8.422;2022-07-10T06:11:35;16.70;1.00
5459;DHT22;2752;49.992;8.422;2022-07-10T06:14:02;16.90;1.00
5459;DHT22;2752;49.992;8.422;2022-07-10T06:16:28;16.90;1.00
5459;DHT22;2752;49.992;8.422;2022-07-10T06:18:55;16.70;1.00
5459;DHT22;2752;49.992;8.422;2022-07-10T06:21:21;16.70;1.00
5459;DHT22;2752;49.992;8.422;2022-07-10T06:23:48;16.70;1.00
5459;DHT22;2752;49.992;8.422;2022-07-10T06:26:15;16.40;1.00
5459;DHT22;2752;49.992;8.422;2022-07-10T06:28:43;16.60;1.00
5459;DHT22;2752;49.992;8.422;2022-07-10T06:31:10;16.60;1.00
5459;DHT22;2752;49.992;8.422;2022-07-10T06:33:37;16.60;1.00
5459;DHT22;2752;49.992;8.422;2022-07-10T06:36:05;16.60;1.00
5459;DHT22;2752;49.992;8.422;2022-07-10T06:38:32;16.70;1.00
5459;DHT22;2752;49.992;8.422;2022-07-10T06:40:58;16.80;1.00
5459;DHT22;2752;49.992;8.422;2022-07-10T06:43:25;16.80;1.00
5459;DHT22;2752;49.992;8.422;2022-07-10T06:45:54;16.90;1.00
5459;DHT22;2752;49.992;8.422;2022-07-10T06:48:21;17.00;1.00
5459;DHT22;2752;49.992;8.422;2022-07-10T06:50:47;16.80;1.00
5459;DHT22;2752;49.992;8.422;2022-07-10T06:53:14;16.60;1.00
5459;DHT22;2752;49.992;8.422;2022-07-10T06:55:41;16.50;1.00
5459;DHT22;2752;49.992;8.422;2022-07-10T06:58:08;16.50;1.00
5459;DHT22;2752;49.992;8.422;2022-07-10T07:00:34;16.60;1.00
5459;DHT22;2752;49.992;8.422;2022-07-10T07:03:02;16.70;1.00
5459;DHT22;2752;49.992;8.422;2022-07-10T07:05:29;16.90;1.00
5459;DHT22;2752;49.992;8.422;2022-07-10T07:07:56;16.90;1.00
5459;DHT22;2752;49.992;8.422;2022-07-10T07:10:22;17.00;1.00
5459;DHT22;2752;49.992;8.422;2022-07-10T07:12:49;17.20;1.00
5459;DHT22;2752;49.992;8.422;2022-07-10T07:15:16;17.40;1.00
5459;DHT22;2752;49.992;8.422;2022-07-10T07:17:43;17.70;1.00
5459;DHT22;2752;49.992;8.422;2022-07-10T07:20:24;17.90;1.00
5459;DHT22;2752;49.992;8.422;2022-07-10T07:23:09;18.00;1.00
5459;DHT22;2752;49.992;8.422;2022-07-10T07:25:40;18.00;1.00
5459;DHT22;2752;49.992;8.422;2022-07-10T07:28:12;18.10;1.00
5459;DHT22;2752;49.992;8.422;2022-07-10T07:30:40;17.90;1.00
5459;DHT22;2752;49.992;8.422;2022-07-10T07:33:07;17.80;1.00
5459;DHT22;2752;49.992;8.422;2022-07-10T07:35:35;17.80;1.00
5459;DHT22;2752;49.992;8.422;2022-07-10T07:38:03;17.70;1.00
5459;DHT22;2752;49.992;8.422;2022-07-10T07:40:31;17.70;1.00
5459;DHT22;2752;49.992;8.422;2022-07-10T07:42:59;17.70;1.00
5459;DHT22;2752;49.992;8.422;2022-07-10T07:45:26;17.70;1.00
5459;DHT22;2752;49.992;8.422;2022-07-10T07:47:54;17.80;1.00
5459;DHT22;2752;49.992;8.422;2022-07-10T07:50:23;18.00;1.00
5459;DHT22;2752;49.992;8.422;2022-07-10T07:52:53;18.20;1.00
5459;DHT22;2752;49.992;8.422;2022-07-10T07:55:20;18.10;1.00
5459;DHT22;2752;49.992;8.422;2022-07-10T07:57:48;18.20;1.00
5459;DHT22;2752;49.992;8.422;2022-07-10T08:00:17;18.20;1.00
5459;DHT22;2752;49.992;8.422;2022-07-10T08:02:45;18.10;1.00
5459;DHT22;2752;49.992;8.422;2022-07-10T08:05:12;18.20;1.00
5459;DHT22;2752;49.992;8.422;2022-07-10T08:07:40;18.10;1.00
5459;DHT22;2752;49.992;8.422;2022-07-10T08:10:10;17.90;1.00
5459;DHT22;2752;49.992;8.422;2022-07-10T08:12:38;17.90;1.00
5459;DHT22;2752;49.992;8.422;2022-07-10T08:15:07;17.80;1.00
5459;DHT22;2752;49.992;8.422;2022-07-10T08:17:34;17.60;1.00
5459;DHT22;2752;49.992;8.422;2022-07-10T08:20:01;17.50;1.00
5459;DHT22;2752;49.992;8.422;2022-07-10T08:22:28;17.40;1.00
5459;DHT22;2752;49.992;8.422;2022-07-10T08:24:55;17.50;1.00
5459;DHT22;2752;49.992;8.422;2022-07-10T08:27:24;17.80;1.00
5459;DHT22;2752;49.992;8.422;2022-07-10T08:29:50;18.10;1.00
5459;DHT22;2752;49.992;8.422;2022-07-10T08:32:17;18.20;1.00
5459;DHT22;2752;49.992;8.422;2022-07-10T08:34:45;18.20;1.00
5459;DHT22;2752;49.992;8.422;2022-07-10T08:37:13;18.20;1.00
5459;DHT22;2752;49.992;8.422;2022-07-10T08:39:40;18.20;1.00
5459;DHT22;2752;49.992;8.422;2022-07-10T08:42:07;18.30;1.00
5459;DHT22;2752;49.992;8.422;2022-07-10T08:44:35;18.30;1.00
5459;DHT22;2752;49.992;8.422;2022-07-10T08:47:03;18.40;1.00
5459;DHT22;2752;49.992;8.422;2022-07-10T08:49:31;18.70;1.00
5459;DHT22;2752;49.992;8.422;2022-07-10T08:52:03;18.70;1.00
5459;DHT22;2752;49.992;8.422;2022-07-10T08:54:31;18.70;1.00
5459;DHT22;2752;49.992;8.422;2022-07-10T08:56:59;18.60;1.00
5459;DHT22;2752;49.992;8.422;2022-07-10T08:59:27;18.60;1.00
5459;DHT22;2752;49.992;8.422;2022-07-10T09:01:56;18.50;1.00
5459;DHT22;2752;49.992;8.422;2022-07-10T09:04:24;18.70;1.00
5459;DHT22;2752;49.992;8.422;2022-07-10T09:06:52;18.50;1.00
5459;DHT22;2752;49.992;8.422;2022-07-10T09:09:19;18.30;1.00
5459;DHT22;2752;49.992;8.422;2022-07-10T09:11:46;18.40;1.00
5459;DHT22;2752;49.992;8.422;2022-07-10T09:14:14;18.50;1.00
5459;DHT22;2752;49.992;8.422;2022-07-10T09:16:44;18.40;1.00
5459;DHT22;2752;49.992;8.422;2022-07-10T09:19:17;18.40;1.00
5459;DHT22;2752;49.992;8.422;2022-07-10T09:21:44;18.40;1.00
5459;DHT22;2752;49.992;8.422;2022-07-10T09:24:11;18.50;1.00
5459;DHT22;2752;49.992;8.422;2022-07-10T09:26:40;18.60;1.00
5459;DHT22;2752;49.992;8.422;2022-07-10T09:29:08;18.90;1.00
5459;DHT22;2752;49.992;8.422;2022-07-10T09:31:51;19.10;1.00
5459;DHT22;2752;49.992;8.422;2022-07-10T09:34:35;19.00;1.00
5459;DHT22;2752;49.992;8.422;2022-07-10T09:37:17;19.00;1.00
5459;DHT22;2752;49.992;8.422;2022-07-10T09:39:51;18.80;1.00
5459;DHT22;2752;49.992;8.422;2022-07-10T09:42:28;18.50;1.00
5459;DHT22;2752;49.992;8.422;2022-07-10T09:45:14;18.40;1.00
5459;DHT22;2752;49.992;8.422;2022-07-10T09:47:43;18.40;1.00
5459;DHT22;2752;49.992;8.422;2022-07-10T09:50:21;18.70;1.00
5459;DHT22;2752;49.992;8.422;2022-07-10T09:52:50;18.90;1.00
5459;DHT22;2752;49.992;8.422;2022-07-10T09:55:19;19.20;1.00
5459;DHT22;2752;49.992;8.422;2022-07-10T09:57:51;19.50;1.00
5459;DHT22;2752;49.992;8.422;2022-07-10T10:00:19;19.50;1.00
5459;DHT22;2752;49.992;8.422;2022-07-10T10:02:47;19.60;1.00
5459;DHT22;2752;49.992;8.422;2022-07-10T10:05:14;19.90;1.00
5459;DHT22;2752;49.992;8.422;2022-07-10T10:07:44;19.90;1.00
5459;DHT22;2752;49.992;8.422;2022-07-10T10:10:12;19.90;1.00
5459;DHT22;2752;49.992;8.422;2022-07-10T10:12:42;19.80;1.00
5459;DHT22;2752;49.992;8.422;2022-07-10T10:15:11;19.90;1.00
5459;DHT22;2752;49.992;8.422;2022-07-10T10:17:40;19.80;1.00
5459;DHT22;2752;49.992;8.422;2022-07-10T10:20:08;19.90;1.00
5459;DHT22;2752;49.992;8.422;2022-07-10T10:22:54;19.90;1.00
5459;DHT22;2752;49.992;8.422;2022-07-10T10:25:22;19.60;1.00
5459;DHT22;2752;49.992;8.422;2022-07-10T10:27:50;19.50;1.00
5459;DHT22;2752;49.992;8.422;2022-07-10T10:30:17;19.40;1.00
5459;DHT22;2752;49.992;8.422;2022-07-10T10:35:44;19.50;1.00
5459;DHT22;2752;49.992;8.422;2022-07-10T10:38:13;19.60;1.00
5459;DHT22;2752;49.992;8.422;2022-07-10T10:40:40;19.80;1.00
5459;DHT22;2752;49.992;8.422;2022-07-10T10:43:16;19.70;1.00
5459;DHT22;2752;49.992;8.422;2022-07-10T10:45:43;19.80;1.00
5459;DHT22;2752;49.992;8.422;2022-07-10T10:48:10;20.10;1.00
5459;DHT22;2752;49.992;8.422;2022-07-10T10:50:39;20.00;1.00
5459;DHT22;2752;49.992;8.422;2022-07-10T10:53:15;20.10;1.00
5459;DHT22;2752;49.992;8.422;2022-07-10T10:58:46;20.80;1.00
5459;DHT22;2752;49.992;8.422;2022-07-10T11:01:24;21.00;1.00
5459;DHT22;2752;49.992;8.422;2022-07-10T11:04:12;21.00;1.00
5459;DHT22;2752;49.992;8.422;2022-07-10T11:06:41;21.20;1.00
5459;DHT22;2752;49.992;8.422;2022-07-10T11:09:26;21.30;1.00
5459;DHT22;2752;49.992;8.422;2022-07-10T11:12:03;21.20;1.00
5459;DHT22;2752;49.992;8.422;2022-07-10T11:14:32;21.00;1.00
5459;DHT22;2752;49.992;8.422;2022-07-10T11:16:59;21.00;1.00
5459;DHT22;2752;49.992;8.422;2022-07-10T11:19:28;21.20;1.00
5459;DHT22;2752;49.992;8.422;2022-07-10T11:22:36;21.20;1.00
5459;DHT22;2752;49.992;8.422;2022-07-10T11:25:23;21.20;1.00
5459;DHT22;2752;49.992;8.422;2022-07-10T11:28:04;20.90;1.00
5459;DHT22;2752;49.992;8.422;2022-07-10T11:30:47;21.00;1.00
5459;DHT22;2752;49.992;8.422;2022-07-10T11:33:14;21.20;1.00
5459;DHT22;2752;49.992;8.422;2022-07-10T11:35:44;21.30;1.00
5459;DHT22;2752;49.992;8.422;2022-07-10T11:38:11;21.20;1.00
5459;DHT22;2752;49.992;8.422;2022-07-10T11:40:39;21.20;1.00
5459;DHT22;2752;49.992;8.422;2022-07-10T11:43:06;21.40;1.00
5459;DHT22;2752;49.992;8.422;2022-07-10T11:45:35;21.80;1.00
5459;DHT22;2752;49.992;8.422;2022-07-10T11:48:04;22.00;1.00
5459;DHT22;2752;49.992;8.422;2022-07-10T11:50:37;22.00;1.00
5459;DHT22;2752;49.992;8.422;2022-07-10T11:53:04;22.00;1.00
5459;DHT22;2752;49.992;8.422;2022-07-10T11:55:32;21.60;1.00
5459;DHT22;2752;49.992;8.422;2022-07-10T11:58:14;21.30;1.00
5459;DHT22;2752;49.992;8.422;2022-07-10T12:00:41;21.10;1.00
5459;DHT22;2752;49.992;8.422;2022-07-10T12:03:18;21.10;1.00
5459;DHT22;2752;49.992;8.422;2022-07-10T12:05:46;21.50;1.00
5459;DHT22;2752;49.992;8.422;2022-07-10T12:08:13;21.30;1.00
5459;DHT22;2752;49.992;8.422;2022-07-10T12:10:41;21.20;1.00
5459;DHT22;2752;49.992;8.422;2022-07-10T12:13:09;21.40;1.00
5459;DHT22;2752;49.992;8.422;2022-07-10T12:15:39;21.60;1.00
5459;DHT22;2752;49.992;8.422;2022-07-10T12:18:09;21.70;1.00
5459;DHT22;2752;49.992;8.422;2022-07-10T12:23:11;21.70;1.00
5459;DHT22;2752;49.992;8.422;2022-07-10T12:25:41;22.00;1.00
5459;DHT22;2752;49.992;8.422;2022-07-10T12:28:09;22.40;1.00
5459;DHT22;2752;49.992;8.422;2022-07-10T12:30:42;21.90;1.00
5459;DHT22;2752;49.992;8.422;2022-07-10T12:33:10;21.90;1.00
5459;DHT22;2752;49.992;8.422;2022-07-10T12:35:52;22.00;1.00
5459;DHT22;2752;49.992;8.422;2022-07-10T12:38:21;22.40;1.00
5459;DHT22;2752;49.992;8.422;2022-07-10T12:40:48;22.40;1.00
5459;DHT22;2752;49.992;8.422;2022-07-10T12:43:25;22.50;1.00
5459;DHT22;2752;49.992;8.422;2022-07-10T12:46:13;22.30;1.00
5459;DHT22;2752;49.992;8.422;2022-07-10T12:48:41;22.20;1.00
5459;DHT22;2752;49.992;8.422;2022-07-10T12:51:20;22.30;1.00
5459;DHT22;2752;49.992;8.422;2022-07-10T12:53:47;22.20;1.00
5459;DHT22;2752;49.992;8.422;2022-07-10T12:56:29;22.50;1.00
5459;DHT22;2752;49.992;8.422;2022-07-10T12:58:57;22.40;1.00
5459;DHT22;2752;49.992;8.422;2022-07-10T13:01:26;22.30;1.00
5459;DHT22;2752;49.992;8.422;2022-07-10T13:04:00;22.30;1.00
5459;DHT22;2752;49.992;8.422;2022-07-10T13:06:28;22.20;1.00
5459;DHT22;2752;49.992;8.422;2022-07-10T13:08:55;22.10;1.00
5459;DHT22;2752;49.992;8.422;2022-07-10T13:11:22;22.10;1.00
5459;DHT22;2752;49.992;8.422;2022-07-10T13:13:49;22.40;1.00
5459;DHT22;2752;49.992;8.422;2022-07-10T13:16:16;22.40;1.00
5459;DHT22;2752;49.992;8.422;2022-07-10T13:18:44;22.10;1.00
5459;DHT22;2752;49.992;8.422;2022-07-10T13:21:11;21.90;1.00
5459;DHT22;2752;49.992;8.422;2022-07-10T13:23:38;21.70;1.00
5459;DHT22;2752;49.992;8.422;2022-07-10T13:26:05;21.70;1.00
5459;DHT22;2752;49.992;8.422;2022-07-10T13:28:33;21.70;1.00
5459;DHT22;2752;49.992;8.422;2022-07-10T13:31:00;21.70;1.00
5459;DHT22;2752;49.992;8.422;2022-07-10T13:33:27;21.70;1.00
5459;DHT22;2752;49.992;8.422;2022-07-10T13:35:55;21.70;1.00
5459;DHT22;2752;49.992;8.422;2022-07-10T13:38:25;21.70;1.00
5459;DHT22;2752;49.992;8.422;2022-07-10T13:40:51;21.70;1.00
5459;DHT22;2752;49.992;8.422;2022-07-10T13:43:18;21.90;1.00
5459;DHT22;2752;49.992;8.422;2022-07-10T13:45:46;22.10;1.00
5459;DHT22;2752;49.992;8.422;2022-07-10T13:48:14;22.30;1.00
5459;DHT22;2752;49.992;8.422;2022-07-10T13:50:42;22.30;1.00
5459;DHT22;2752;49.992;8.422;2022-07-10T13:53:10;22.20;1.00
5459;DHT22;2752;49.992;8.422;2022-07-10T13:55:37;22.20;1.00
5459;DHT22;2752;49.992;8.422;2022-07-10T14:00:32;22.20;1.00
5459;DHT22;2752;49.992;8.422;2022-07-10T14:02:58;22.10;1.00
5459;DHT22;2752;49.992;8.422;2022-07-10T14:05:26;22.20;1.00
5459;DHT22;2752;49.992;8.422;2022-07-10T14:07:52;22.30;1.00
5459;DHT22;2752;49.992;8.422;2022-07-10T14:10:21;22.20;1.00
5459;DHT22;2752;49.992;8.422;2022-07-10T14:12:47;22.20;1.00
5459;DHT22;2752;49.992;8.422;2022-07-10T14:15:14;22.20;1.00
5459;DHT22;2752;49.992;8.422;2022-07-10T14:17:41;22.20;1.00
5459;DHT22;2752;49.992;8.422;2022-07-10T14:20:09;22.20;1.00
5459;DHT22;2752;49.992;8.422;2022-07-10T14:22:36;22.40;1.00
5459;DHT22;2752;49.992;8.422;2022-07-10T14:25:03;22.30;1.00
5459;DHT22;2752;49.992;8.422;2022-07-10T14:27:31;22.10;1.00
5459;DHT22;2752;49.992;8.422;2022-07-10T14:29:58;22.20;1.00
5459;DHT22;2752;49.992;8.422;2022-07-10T14:32:25;22.10;1.00
5459;DHT22;2752;49.992;8.422;2022-07-10T14:34:52;22.00;1.00
5459;DHT22;2752;49.992;8.422;2022-07-10T14:37:18;21.90;1.00
5459;DHT22;2752;49.992;8.422;2022-07-10T14:39:45;21.70;1.00
5459;DHT22;2752;49.992;8.422;2022-07-10T14:42:12;21.60;1.00
5459;DHT22;2752;49.992;8.422;2022-07-10T14:44:40;21.50;1.00
5459;DHT22;2752;49.992;8.422;2022-07-10T14:47:07;21.60;1.00
5459;DHT22;2752;49.992;8.422;2022-07-10T14:49:33;21.60;1.00
5459;DHT22;2752;49.992;8.422;2022-07-10T14:52:00;21.60;1.00
5459;DHT22;2752;49.992;8.422;2022-07-10T14:54:27;21.60;1.00
5459;DHT22;2752;49.992;8.422;2022-07-10T14:56:54;21.70;1.00
5459;DHT22;2752;49.992;8.422;2022-07-10T14:59:21;21.70;1.00
5459;DHT22;2752;49.992;8.422;2022-07-10T15:01:50;21.60;1.00
5459;DHT22;2752;49.992;8.422;2022-07-10T15:04:17;21.70;1.00
5459;DHT22;2752;49.992;8.422;2022-07-10T15:06:43;21.80;1.00
5459;DHT22;2752;49.992;8.422;2022-07-10T15:09:12;22.00;1.00
5459;DHT22;2752;49.992;8.422;2022-07-10T15:11:39;21.90;1.00
5459;DHT22;2752;49.992;8.422;2022-07-10T15:14:06;21.80;1.00
5459;DHT22;2752;49.992;8.422;2022-07-10T15:16:32;22.00;1.00
5459;DHT22;2752;49.992;8.422;2022-07-10T15:19:00;22.10;1.00
5459;DHT22;2752;49.992;8.422;2022-07-10T15:21:27;22.20;1.00
5459;DHT22;2752;49.992;8.422;2022-07-10T15:23:55;22.10;1.00
5459;DHT22;2752;49.992;8.422;2022-07-10T15:26:21;22.20;1.00
5459;DHT22;2752;49.992;8.422;2022-07-10T15:28:48;22.40;1.00
5459;DHT22;2752;49.992;8.422;2022-07-10T15:31:14;22.40;1.00
5459;DHT22;2752;49.992;8.422;2022-07-10T15:33:41;22.30;1.00
5459;DHT22;2752;49.992;8.422;2022-07-10T15:36:12;22.20;1.00
5459;DHT22;2752;49.992;8.422;2022-07-10T15:38:39;22.00;1.00
5459;DHT22;2752;49.992;8.422;2022-07-10T15:41:06;21.90;1.00
5459;DHT22;2752;49.992;8.422;2022-07-10T15:43:32;21.80;1.00
5459;DHT22;2752;49.992;8.422;2022-07-10T15:45:59;21.70;1.00
5459;DHT22;2752;49.992;8.422;2022-07-10T15:48:26;21.70;1.00
5459;DHT22;2752;49.992;8.422;2022-07-10T15:50:53;21.80;1.00
5459;DHT22;2752;49.992;8.422;2022-07-10T15:53:22;22.00;1.00
5459;DHT22;2752;49.992;8.422;2022-07-10T15:55:48;22.10;1.00
5459;DHT22;2752;49.992;8.422;2022-07-10T15:58:15;21.80;1.00
5459;DHT22;2752;49.992;8.422;2022-07-10T16:00:42;21.80;1.00
5459;DHT22;2752;49.992;8.422;2022-07-10T16:03:08;21.70;1.00
5459;DHT22;2752;49.992;8.422;2022-07-10T16:05:35;21.60;1.00
5459;DHT22;2752;49.992;8.422;2022-07-10T16:08:02;21.60;1.00
5459;DHT22;2752;49.992;8.422;2022-07-10T16:10:30;21.50;1.00
5459;DHT22;2752;49.992;8.422;2022-07-10T16:12:57;21.60;1.00
5459;DHT22;2752;49.992;8.422;2022-07-10T16:15:23;21.40;1.00
5459;DHT22;2752;49.992;8.422;2022-07-10T16:17:50;21.40;1.00
5459;DHT22;2752;49.992;8.422;2022-07-10T16:20:17;21.40;1.00
5459;DHT22;2752;49.992;8.422;2022-07-10T16:22:43;21.30;1.00
5459;DHT22;2752;49.992;8.422;2022-07-10T16:25:10;21.20;1.00
5459;DHT22;2752;49.992;8.422;2022-07-10T16:27:55;21.30;1.00
5459;DHT22;2752;49.992;8.422;2022-07-10T16:30:22;21.30;1.00
5459;DHT22;2752;49.992;8.422;2022-07-10T16:32:49;21.20;1.00
5459;DHT22;2752;49.992;8.422;2022-07-10T16:35:16;21.10;1.00
5459;DHT22;2752;49.992;8.422;2022-07-10T16:37:42;21.10;1.00
5459;DHT22;2752;49.992;8.422;2022-07-10T16:40:09;21.10;1.00
5459;DHT22;2752;49.992;8.422;2022-07-10T16:42:36;21.30;1.00
5459;DHT22;2752;49.992;8.422;2022-07-10T16:45:05;21.20;1.00
5459;DHT22;2752;49.992;8.422;2022-07-10T16:47:32;21.10;1.00
5459;DHT22;2752;49.992;8.422;2022-07-10T16:49:59;21.30;1.00